Panoche, California
Current Conditions -  °F | °C
As of 11:53 AM on Thursday 29 Jan 2015 (Local Time) from KSNS Reporting Station
Clear Clear  
Wind Chill: 67°   Ceiling: Unl
Heat Index: 67°   Visibility: 10mi
Dew Point: 46°   Wind: 3mph
Humidity: 47%   Direction: 100°E
Pressure: 30.1"   Gusts: NA
Location:  36.4824°N, 120.948°W
Report Text: KSNS 291953Z AUTO 10003KT 10SM CLR 19/08 A3010 RMK AO2 SLP201 T01940078
Loading
Personal Weather Stations






























Interactive Weather Map New forecast layout! Learn more

10-Day Weather Forecast

Advertisements
Track Severe Weather on mobile